sensor_id;sensor_type;location;lat;lon;timestamp;P1;durP1;ratioP1;P2;durP2;ratioP2
29938;SDS011;16799;50.844;5.304;2023-05-20T00:01:33;6.83;;;3.77;;
29938;SDS011;16799;50.844;5.304;2023-05-20T00:03:58;4.40;;;3.13;;
29938;SDS011;16799;50.844;5.304;2023-05-20T00:06:24;5.60;;;3.50;;
29938;SDS011;16799;50.844;5.304;2023-05-20T00:08:49;11.97;;;3.60;;
29938;SDS011;16799;50.844;5.304;2023-05-20T00:11:15;3.53;;;2.87;;
29938;SDS011;16799;50.844;5.304;2023-05-20T00:13:41;7.17;;;3.07;;
29938;SDS011;16799;50.844;5.304;2023-05-20T00:16:06;6.90;;;3.10;;
29938;SDS011;16799;50.844;5.304;2023-05-20T00:18:32;6.37;;;3.20;;
29938;SDS011;16799;50.844;5.304;2023-05-20T00:20:58;4.57;;;2.60;;
29938;SDS011;16799;50.844;5.304;2023-05-20T00:23:23;3.07;;;2.80;;
29938;SDS011;16799;50.844;5.304;2023-05-20T00:25:49;5.10;;;2.93;;
29938;SDS011;16799;50.844;5.304;2023-05-20T00:28:15;4.30;;;3.33;;
29938;SDS011;16799;50.844;5.304;2023-05-20T00:30:40;3.20;;;2.60;;
29938;SDS011;16799;50.844;5.304;2023-05-20T00:33:06;8.33;;;3.10;;
29938;SDS011;16799;50.844;5.304;2023-05-20T00:35:32;3.50;;;3.23;;
29938;SDS011;16799;50.844;5.304;2023-05-20T00:37:58;3.30;;;3.00;;
29938;SDS011;16799;50.844;5.304;2023-05-20T00:40:23;4.00;;;3.80;;
29938;SDS011;16799;50.844;5.304;2023-05-20T00:42:49;3.50;;;3.27;;
29938;SDS011;16799;50.844;5.304;2023-05-20T00:45:15;4.57;;;2.53;;
29938;SDS011;16799;50.844;5.304;2023-05-20T00:47:41;6.73;;;2.97;;
29938;SDS011;16799;50.844;5.304;2023-05-20T00:50:08;4.57;;;3.47;;
29938;SDS011;16799;50.844;5.304;2023-05-20T00:52:35;2.80;;;2.60;;
29938;SDS011;16799;50.844;5.304;2023-05-20T00:55:01;5.27;;;3.40;;
29938;SDS011;16799;50.844;5.304;2023-05-20T00:57:27;3.30;;;3.00;;
29938;SDS011;16799;50.844;5.304;2023-05-20T00:59:53;4.03;;;2.90;;
29938;SDS011;16799;50.844;5.304;2023-05-20T01:02:19;3.20;;;2.90;;
29938;SDS011;16799;50.844;5.304;2023-05-20T01:04:45;3.00;;;2.73;;
29938;SDS011;16799;50.844;5.304;2023-05-20T01:07:12;5.13;;;3.20;;
29938;SDS011;16799;50.844;5.304;2023-05-20T01:09:39;4.33;;;3.70;;
29938;SDS011;16799;50.844;5.304;2023-05-20T01:12:12;3.90;;;3.67;;
29938;SDS011;16799;50.844;5.304;2023-05-20T01:14:47;4.00;;;3.60;;
29938;SDS011;16799;50.844;5.304;2023-05-20T01:17:15;4.50;;;2.73;;
29938;SDS011;16799;50.844;5.304;2023-05-20T01:19:45;9.50;;;3.40;;
29938;SDS011;16799;50.844;5.304;2023-05-20T01:22:13;7.03;;;2.40;;
29938;SDS011;16799;50.844;5.304;2023-05-20T01:24:48;4.57;;;3.80;;
29938;SDS011;16799;50.844;5.304;2023-05-20T01:27:13;5.33;;;3.17;;
29938;SDS011;16799;50.844;5.304;2023-05-20T01:29:39;3.43;;;2.70;;
29938;SDS011;16799;50.844;5.304;2023-05-20T01:32:07;5.20;;;3.67;;
29938;SDS011;16799;50.844;5.304;2023-05-20T01:34:36;2.60;;;2.40;;
29938;SDS011;16799;50.844;5.304;2023-05-20T01:37:03;4.90;;;3.23;;
29938;SDS011;16799;50.844;5.304;2023-05-20T01:39:31;5.60;;;3.27;;
29938;SDS011;16799;50.844;5.304;2023-05-20T01:41:59;3.43;;;2.87;;
29938;SDS011;16799;50.844;5.304;2023-05-20T01:44:26;6.20;;;3.40;;
29938;SDS011;16799;50.844;5.304;2023-05-20T01:46:52;5.10;;;3.13;;
29938;SDS011;16799;50.844;5.304;2023-05-20T01:49:18;4.03;;;2.90;;
29938;SDS011;16799;50.844;5.304;2023-05-20T01:51:43;11.50;;;3.43;;
29938;SDS011;16799;50.844;5.304;2023-05-20T01:54:09;6.23;;;3.90;;
29938;SDS011;16799;50.844;5.304;2023-05-20T01:56:35;12.20;;;3.03;;
29938;SDS011;16799;50.844;5.304;2023-05-20T01:59:00;6.20;;;4.10;;
29938;SDS011;16799;50.844;5.304;2023-05-20T02:01:26;3.67;;;3.37;;
29938;SDS011;16799;50.844;5.304;2023-05-20T02:03:52;7.70;;;3.57;;
29938;SDS011;16799;50.844;5.304;2023-05-20T02:06:17;3.70;;;3.40;;
29938;SDS011;16799;50.844;5.304;2023-05-20T02:08:43;3.57;;;3.23;;
29938;SDS011;16799;50.844;5.304;2023-05-20T02:11:08;3.40;;;3.10;;
29938;SDS011;16799;50.844;5.304;2023-05-20T02:13:34;4.37;;;3.70;;
29938;SDS011;16799;50.844;5.304;2023-05-20T02:16:00;5.70;;;3.10;;
29938;SDS011;16799;50.844;5.304;2023-05-20T02:18:25;5.43;;;3.27;;
29938;SDS011;16799;50.844;5.304;2023-05-20T02:20:51;5.93;;;3.10;;
29938;SDS011;16799;50.844;5.304;2023-05-20T02:23:17;4.03;;;2.90;;
29938;SDS011;16799;50.844;5.304;2023-05-20T02:25:43;4.43;;;3.00;;
29938;SDS011;16799;50.844;5.304;2023-05-20T02:28:09;7.47;;;2.87;;
29938;SDS011;16799;50.844;5.304;2023-05-20T02:30:38;15.23;;;3.80;;
29938;SDS011;16799;50.844;5.304;2023-05-20T02:33:03;3.43;;;3.23;;
29938;SDS011;16799;50.844;5.304;2023-05-20T02:35:30;4.13;;;2.80;;
29938;SDS011;16799;50.844;5.304;2023-05-20T02:37:56;3.60;;;3.30;;
29938;SDS011;16799;50.844;5.304;2023-05-20T02:40:22;5.37;;;4.03;;
29938;SDS011;16799;50.844;5.304;2023-05-20T02:42:47;3.77;;;3.27;;
29938;SDS011;16799;50.844;5.304;2023-05-20T02:45:13;4.40;;;3.20;;
29938;SDS011;16799;50.844;5.304;2023-05-20T02:47:39;7.23;;;3.50;;
29938;SDS011;16799;50.844;5.304;2023-05-20T02:50:04;6.33;;;4.03;;
29938;SDS011;16799;50.844;5.304;2023-05-20T02:52:31;6.70;;;3.97;;
29938;SDS011;16799;50.844;5.304;2023-05-20T02:54:56;6.00;;;3.53;;
29938;SDS011;16799;50.844;5.304;2023-05-20T02:57:22;3.87;;;3.47;;
29938;SDS011;16799;50.844;5.304;2023-05-20T02:59:48;3.60;;;3.30;;
29938;SDS011;16799;50.844;5.304;2023-05-20T03:02:14;7.10;;;3.10;;
29938;SDS011;16799;50.844;5.304;2023-05-20T03:04:39;3.63;;;3.13;;
29938;SDS011;16799;50.844;5.304;2023-05-20T03:07:05;4.80;;;3.90;;
29938;SDS011;16799;50.844;5.304;2023-05-20T03:09:31;5.77;;;3.80;;
29938;SDS011;16799;50.844;5.304;2023-05-20T03:11:57;3.90;;;3.17;;
29938;SDS011;16799;50.844;5.304;2023-05-20T03:14:23;4.63;;;4.27;;
29938;SDS011;16799;50.844;5.304;2023-05-20T03:16:48;6.70;;;2.73;;
29938;SDS011;16799;50.844;5.304;2023-05-20T03:19:14;6.73;;;4.30;;
29938;SDS011;16799;50.844;5.304;2023-05-20T03:21:40;7.60;;;4.50;;
29938;SDS011;16799;50.844;5.304;2023-05-20T03:24:07;9.57;;;5.40;;
29938;SDS011;16799;50.844;5.304;2023-05-20T03:26:34;11.43;;;4.40;;
29938;SDS011;16799;50.844;5.304;2023-05-20T03:29:01;3.30;;;3.00;;
29938;SDS011;16799;50.844;5.304;2023-05-20T03:31:27;7.30;;;3.83;;
29938;SDS011;16799;50.844;5.304;2023-05-20T03:33:53;4.87;;;4.47;;
29938;SDS011;16799;50.844;5.304;2023-05-20T03:36:19;3.77;;;3.47;;
29938;SDS011;16799;50.844;5.304;2023-05-20T03:38:44;4.80;;;3.67;;
29938;SDS011;16799;50.844;5.304;2023-05-20T03:41:10;8.53;;;3.80;;
29938;SDS011;16799;50.844;5.304;2023-05-20T03:43:36;9.93;;;4.23;;
29938;SDS011;16799;50.844;5.304;2023-05-20T03:46:01;4.13;;;3.83;;
29938;SDS011;16799;50.844;5.304;2023-05-20T03:48:27;4.60;;;4.07;;
29938;SDS011;16799;50.844;5.304;2023-05-20T03:50:52;7.23;;;4.13;;
29938;SDS011;16799;50.844;5.304;2023-05-20T03:53:18;9.33;;;4.20;;
29938;SDS011;16799;50.844;5.304;2023-05-20T03:55:44;11.23;;;4.00;;
29938;SDS011;16799;50.844;5.304;2023-05-20T03:58:10;5.70;;;3.67;;
29938;SDS011;16799;50.844;5.304;2023-05-20T04:00:37;4.07;;;3.40;;
29938;SDS011;16799;50.844;5.304;2023-05-20T04:03:03;3.93;;;3.63;;
29938;SDS011;16799;50.844;5.304;2023-05-20T04:05:29;4.73;;;4.33;;
29938;SDS011;16799;50.844;5.304;2023-05-20T04:07:55;6.23;;;4.60;;
29938;SDS011;16799;50.844;5.304;2023-05-20T04:10:21;5.67;;;4.20;;
29938;SDS011;16799;50.844;5.304;2023-05-20T04:12:47;11.43;;;4.00;;
29938;SDS011;16799;50.844;5.304;2023-05-20T04:15:13;15.37;;;4.43;;
29938;SDS011;16799;50.844;5.304;2023-05-20T04:17:39;10.10;;;4.07;;
29938;SDS011;16799;50.844;5.304;2023-05-20T04:20:05;4.27;;;3.97;;
29938;SDS011;16799;50.844;5.304;2023-05-20T04:22:32;5.03;;;3.80;;
29938;SDS011;16799;50.844;5.304;2023-05-20T04:24:58;8.13;;;3.90;;
29938;SDS011;16799;50.844;5.304;2023-05-20T04:27:24;4.23;;;3.83;;
29938;SDS011;16799;50.844;5.304;2023-05-20T04:29:50;9.97;;;5.13;;
29938;SDS011;16799;50.844;5.304;2023-05-20T04:32:17;8.30;;;4.30;;
29938;SDS011;16799;50.844;5.304;2023-05-20T04:34:43;4.80;;;3.67;;
29938;SDS011;16799;50.844;5.304;2023-05-20T04:37:10;10.23;;;3.83;;
29938;SDS011;16799;50.844;5.304;2023-05-20T04:39:37;12.43;;;5.40;;
29938;SDS011;16799;50.844;5.304;2023-05-20T04:42:03;4.67;;;3.80;;
29938;SDS011;16799;50.844;5.304;2023-05-20T04:44:29;9.20;;;4.97;;
29938;SDS011;16799;50.844;5.304;2023-05-20T04:46:55;7.33;;;4.20;;
29938;SDS011;16799;50.844;5.304;2023-05-20T04:49:24;4.10;;;3.70;;
29938;SDS011;16799;50.844;5.304;2023-05-20T04:51:50;8.83;;;4.63;;
29938;SDS011;16799;50.844;5.304;2023-05-20T04:54:16;10.23;;;4.37;;
29938;SDS011;16799;50.844;5.304;2023-05-20T04:56:44;6.30;;;4.40;;
29938;SDS011;16799;50.844;5.304;2023-05-20T04:59:10;8.57;;;4.03;;
29938;SDS011;16799;50.844;5.304;2023-05-20T05:01:36;8.80;;;5.00;;
29938;SDS011;16799;50.844;5.304;2023-05-20T05:04:02;4.50;;;4.13;;
29938;SDS011;16799;50.844;5.304;2023-05-20T05:06:28;15.43;;;4.63;;
29938;SDS011;16799;50.844;5.304;2023-05-20T05:08:53;5.70;;;4.67;;
29938;SDS011;16799;50.844;5.304;2023-05-20T05:11:19;7.63;;;4.40;;
29938;SDS011;16799;50.844;5.304;2023-05-20T05:13:45;8.00;;;5.00;;
29938;SDS011;16799;50.844;5.304;2023-05-20T05:16:11;6.37;;;4.83;;
29938;SDS011;16799;50.844;5.304;2023-05-20T05:18:36;3.97;;;3.67;;
29938;SDS011;16799;50.844;5.304;2023-05-20T05:21:03;5.30;;;4.00;;
29938;SDS011;16799;50.844;5.304;2023-05-20T05:23:29;11.23;;;4.20;;
29938;SDS011;16799;50.844;5.304;2023-05-20T05:25:55;5.03;;;4.00;;
29938;SDS011;16799;50.844;5.304;2023-05-20T05:28:21;6.83;;;4.23;;
29938;SDS011;16799;50.844;5.304;2023-05-20T05:30:47;5.40;;;4.07;;
29938;SDS011;16799;50.844;5.304;2023-05-20T05:33:13;8.00;;;4.60;;
29938;SDS011;16799;50.844;5.304;2023-05-20T05:35:40;7.50;;;4.47;;
29938;SDS011;16799;50.844;5.304;2023-05-20T05:38:06;7.90;;;4.90;;
29938;SDS011;16799;50.844;5.304;2023-05-20T05:40:32;9.63;;;4.90;;
29938;SDS011;16799;50.844;5.304;2023-05-20T05:42:58;3.83;;;3.63;;
29938;SDS011;16799;50.844;5.304;2023-05-20T05:45:23;19.20;;;4.60;;
29938;SDS011;16799;50.844;5.304;2023-05-20T05:47:49;10.43;;;4.83;;
29938;SDS011;16799;50.844;5.304;2023-05-20T05:50:15;4.70;;;4.30;;
29938;SDS011;16799;50.844;5.304;2023-05-20T05:52:40;8.00;;;4.40;;
29938;SDS011;16799;50.844;5.304;2023-05-20T05:55:06;5.73;;;3.87;;
29938;SDS011;16799;50.844;5.304;2023-05-20T05:57:33;7.10;;;3.60;;
29938;SDS011;16799;50.844;5.304;2023-05-20T05:59:59;9.63;;;4.73;;
29938;SDS011;16799;50.844;5.304;2023-05-20T06:02:25;12.33;;;4.20;;
29938;SDS011;16799;50.844;5.304;2023-05-20T06:04:51;5.10;;;4.40;;
29938;SDS011;16799;50.844;5.304;2023-05-20T06:07:16;5.53;;;3.97;;
29938;SDS011;16799;50.844;5.304;2023-05-20T06:09:42;6.17;;;4.40;;
29938;SDS011;16799;50.844;5.304;2023-05-20T06:12:08;17.47;;;5.30;;
29938;SDS011;16799;50.844;5.304;2023-05-20T06:14:34;6.57;;;4.10;;
29938;SDS011;16799;50.844;5.304;2023-05-20T06:17:00;6.80;;;4.27;;
29938;SDS011;16799;50.844;5.304;2023-05-20T06:19:26;6.40;;;5.10;;
29938;SDS011;16799;50.844;5.304;2023-05-20T06:21:52;8.17;;;4.23;;
29938;SDS011;16799;50.844;5.304;2023-05-20T06:24:18;9.17;;;4.73;;
29938;SDS011;16799;50.844;5.304;2023-05-20T06:26:43;4.27;;;3.87;;
29938;SDS011;16799;50.844;5.304;2023-05-20T06:29:10;7.20;;;3.87;;
29938;SDS011;16799;50.844;5.304;2023-05-20T06:31:36;10.40;;;4.13;;
29938;SDS011;16799;50.844;5.304;2023-05-20T06:34:02;6.73;;;4.80;;
29938;SDS011;16799;50.844;5.304;2023-05-20T06:36:27;6.03;;;4.17;;
29938;SDS011;16799;50.844;5.304;2023-05-20T06:38:53;4.67;;;4.30;;
29938;SDS011;16799;50.844;5.304;2023-05-20T06:41:19;4.63;;;4.33;;
29938;SDS011;16799;50.844;5.304;2023-05-20T06:43:46;8.47;;;4.07;;
29938;SDS011;16799;50.844;5.304;2023-05-20T06:46:12;5.73;;;4.30;;
29938;SDS011;16799;50.844;5.304;2023-05-20T06:48:38;7.40;;;4.07;;
29938;SDS011;16799;50.844;5.304;2023-05-20T06:51:06;7.77;;;4.57;;
29938;SDS011;16799;50.844;5.304;2023-05-20T06:53:33;5.30;;;4.80;;
29938;SDS011;16799;50.844;5.304;2023-05-20T06:55:59;4.90;;;4.20;;
29938;SDS011;16799;50.844;5.304;2023-05-20T06:58:25;3.90;;;3.53;;
29938;SDS011;16799;50.844;5.304;2023-05-20T07:00:50;4.60;;;4.10;;
29938;SDS011;16799;50.844;5.304;2023-05-20T07:03:16;5.97;;;4.20;;
29938;SDS011;16799;50.844;5.304;2023-05-20T07:05:41;6.63;;;4.07;;
29938;SDS011;16799;50.844;5.304;2023-05-20T07:08:07;4.33;;;4.03;;
29938;SDS011;16799;50.844;5.304;2023-05-20T07:10:33;4.47;;;4.07;;
29938;SDS011;16799;50.844;5.304;2023-05-20T07:12:59;3.80;;;3.10;;
29938;SDS011;16799;50.844;5.304;2023-05-20T07:15:24;7.57;;;4.13;;
29938;SDS011;16799;50.844;5.304;2023-05-20T07:17:50;4.67;;;4.27;;
29938;SDS011;16799;50.844;5.304;2023-05-20T07:20:16;5.37;;;3.50;;
29938;SDS011;16799;50.844;5.304;2023-05-20T07:22:41;3.80;;;3.53;;
29938;SDS011;16799;50.844;5.304;2023-05-20T07:25:08;4.80;;;4.07;;
29938;SDS011;16799;50.844;5.304;2023-05-20T07:27:34;5.73;;;3.40;;
29938;SDS011;16799;50.844;5.304;2023-05-20T07:30:00;4.03;;;3.37;;
29938;SDS011;16799;50.844;5.304;2023-05-20T07:32:26;5.37;;;3.73;;
29938;SDS011;16799;50.844;5.304;2023-05-20T07:34:52;5.07;;;4.57;;
29938;SDS011;16799;50.844;5.304;2023-05-20T07:37:17;5.57;;;4.00;;
29938;SDS011;16799;50.844;5.304;2023-05-20T07:39:43;4.60;;;3.73;;
29938;SDS011;16799;50.844;5.304;2023-05-20T07:42:09;8.50;;;3.80;;
29938;SDS011;16799;50.844;5.304;2023-05-20T07:44:34;5.40;;;4.07;;
29938;SDS011;16799;50.844;5.304;2023-05-20T07:47:00;5.77;;;3.90;;
29938;SDS011;16799;50.844;5.304;2023-05-20T07:49:26;6.30;;;3.70;;
29938;SDS011;16799;50.844;5.304;2023-05-20T07:51:52;4.40;;;4.00;;
29938;SDS011;16799;50.844;5.304;2023-05-20T07:54:18;5.33;;;4.83;;
29938;SDS011;16799;50.844;5.304;2023-05-20T07:56:43;7.53;;;4.40;;
29938;SDS011;16799;50.844;5.304;2023-05-20T07:59:09;11.93;;;4.10;;
29938;SDS011;16799;50.844;5.304;2023-05-20T08:01:35;6.33;;;3.57;;
29938;SDS011;16799;50.844;5.304;2023-05-20T08:04:00;4.23;;;3.73;;
29938;SDS011;16799;50.844;5.304;2023-05-20T08:06:26;4.37;;;4.00;;
29938;SDS011;16799;50.844;5.304;2023-05-20T08:08:52;4.47;;;3.47;;
29938;SDS011;16799;50.844;5.304;2023-05-20T08:11:18;4.20;;;3.67;;
29938;SDS011;16799;50.844;5.304;2023-05-20T08:13:45;3.40;;;3.00;;
29938;SDS011;16799;50.844;5.304;2023-05-20T08:16:11;5.00;;;3.70;;
29938;SDS011;16799;50.844;5.304;2023-05-20T08:18:37;11.43;;;5.00;;
29938;SDS011;16799;50.844;5.304;2023-05-20T08:21:03;5.53;;;3.63;;
29938;SDS011;16799;50.844;5.304;2023-05-20T08:23:32;5.37;;;4.97;;
29938;SDS011;16799;50.844;5.304;2023-05-20T08:25:58;4.50;;;4.20;;
29938;SDS011;16799;50.844;5.304;2023-05-20T08:28:26;7.80;;;3.90;;
29938;SDS011;16799;50.844;5.304;2023-05-20T08:30:52;4.80;;;4.40;;
29938;SDS011;16799;50.844;5.304;2023-05-20T08:33:18;3.83;;;3.30;;
29938;SDS011;16799;50.844;5.304;2023-05-20T08:35:45;8.57;;;5.80;;
29938;SDS011;16799;50.844;5.304;2023-05-20T08:38:11;11.27;;;4.90;;
29938;SDS011;16799;50.844;5.304;2023-05-20T08:40:37;4.67;;;4.27;;
29938;SDS011;16799;50.844;5.304;2023-05-20T08:43:03;5.10;;;4.00;;
29938;SDS011;16799;50.844;5.304;2023-05-20T08:45:32;8.17;;;3.80;;
29938;SDS011;16799;50.844;5.304;2023-05-20T08:48:01;4.73;;;4.33;;
29938;SDS011;16799;50.844;5.304;2023-05-20T08:50:29;4.63;;;4.20;;
29938;SDS011;16799;50.844;5.304;2023-05-20T08:52:55;9.23;;;4.27;;
29938;SDS011;16799;50.844;5.304;2023-05-20T08:55:25;5.90;;;4.10;;
29938;SDS011;16799;50.844;5.304;2023-05-20T08:57:57;4.57;;;4.07;;
29938;SDS011;16799;50.844;5.304;2023-05-20T09:00:23;6.33;;;4.77;;
29938;SDS011;16799;50.844;5.304;2023-05-20T09:02:52;9.90;;;4.87;;
29938;SDS011;16799;50.844;5.304;2023-05-20T09:05:19;8.80;;;4.23;;
29938;SDS011;16799;50.844;5.304;2023-05-20T09:07:45;4.67;;;4.27;;
29938;SDS011;16799;50.844;5.304;2023-05-20T09:10:11;6.63;;;5.13;;
29938;SDS011;16799;50.844;5.304;2023-05-20T09:12:36;9.93;;;3.80;;
29938;SDS011;16799;50.844;5.304;2023-05-20T09:15:02;6.80;;;4.70;;
29938;SDS011;16799;50.844;5.304;2023-05-20T09:17:29;5.33;;;4.80;;
29938;SDS011;16799;50.844;5.304;2023-05-20T09:19:54;11.43;;;4.60;;
29938;SDS011;16799;50.844;5.304;2023-05-20T09:22:23;6.73;;;4.30;;
29938;SDS011;16799;50.844;5.304;2023-05-20T09:24:50;6.87;;;4.90;;
29938;SDS011;16799;50.844;5.304;2023-05-20T09:27:16;5.27;;;4.17;;
29938;SDS011;16799;50.844;5.304;2023-05-20T09:29:42;4.70;;;4.30;;
29938;SDS011;16799;50.844;5.304;2023-05-20T09:32:09;5.23;;;4.30;;
29938;SDS011;16799;50.844;5.304;2023-05-20T09:34:35;4.83;;;4.40;;
29938;SDS011;16799;50.844;5.304;2023-05-20T09:37:06;14.87;;;4.27;;
29938;SDS011;16799;50.844;5.304;2023-05-20T09:39:33;7.60;;;4.20;;
29938;SDS011;16799;50.844;5.304;2023-05-20T09:42:21;4.70;;;4.40;;
29938;SDS011;16799;50.844;5.304;2023-05-20T09:45:07;6.00;;;5.50;;
29938;SDS011;16799;50.844;5.304;2023-05-20T09:47:39;8.63;;;4.57;;
29938;SDS011;16799;50.844;5.304;2023-05-20T09:50:05;3.60;;;3.30;;
29938;SDS011;16799;50.844;5.304;2023-05-20T09:52:36;5.00;;;4.53;;
29938;SDS011;16799;50.844;5.304;2023-05-20T09:55:03;7.40;;;4.47;;
29938;SDS011;16799;50.844;5.304;2023-05-20T09:57:33;6.10;;;4.87;;
29938;SDS011;16799;50.844;5.304;2023-05-20T09:59:59;4.33;;;4.03;;
29938;SDS011;16799;50.844;5.304;2023-05-20T10:02:26;4.23;;;3.83;;
29938;SDS011;16799;50.844;5.304;2023-05-20T10:04:52;7.20;;;5.27;;
29938;SDS011;16799;50.844;5.304;2023-05-20T10:07:27;3.97;;;3.67;;
29938;SDS011;16799;50.844;5.304;2023-05-20T10:21:59;4.80;;;4.30;;
29938;SDS011;16799;50.844;5.304;2023-05-20T10:24:30;7.40;;;4.80;;
29938;SDS011;16799;50.844;5.304;2023-05-20T10:27:09;8.07;;;4.37;;
29938;SDS011;16799;50.844;5.304;2023-05-20T10:29:41;5.47;;;4.97;;
29938;SDS011;16799;50.844;5.304;2023-05-20T10:32:07;4.70;;;4.10;;
29938;SDS011;16799;50.844;5.304;2023-05-20T10:34:43;3.97;;;3.67;;
29938;SDS011;16799;50.844;5.304;2023-05-20T10:37:19;3.87;;;3.23;;
29938;SDS011;16799;50.844;5.304;2023-05-20T10:40:01;4.70;;;4.37;;
29938;SDS011;16799;50.844;5.304;2023-05-20T10:42:30;4.10;;;3.67;;
29938;SDS011;16799;50.844;5.304;2023-05-20T10:44:56;10.03;;;5.17;;
29938;SDS011;16799;50.844;5.304;2023-05-20T10:47:22;6.43;;;4.07;;
29938;SDS011;16799;50.844;5.304;2023-05-20T10:49:47;4.23;;;3.90;;
29938;SDS011;16799;50.844;5.304;2023-05-20T10:52:13;3.97;;;3.57;;
29938;SDS011;16799;50.844;5.304;2023-05-20T10:55:17;5.60;;;3.70;;
29938;SDS011;16799;50.844;5.304;2023-05-20T10:57:44;4.50;;;3.07;;
29938;SDS011;16799;50.844;5.304;2023-05-20T11:00:10;7.53;;;4.10;;
29938;SDS011;16799;50.844;5.304;2023-05-20T11:02:36;6.43;;;3.63;;
29938;SDS011;16799;50.844;5.304;2023-05-20T11:05:03;3.63;;;3.10;;
29938;SDS011;16799;50.844;5.304;2023-05-20T11:07:30;4.10;;;3.70;;
29938;SDS011;16799;50.844;5.304;2023-05-20T11:09:59;4.83;;;4.37;;
29938;SDS011;16799;50.844;5.304;2023-05-20T11:12:25;4.60;;;3.43;;
29938;SDS011;16799;50.844;5.304;2023-05-20T11:14:52;5.20;;;3.23;;
29938;SDS011;16799;50.844;5.304;2023-05-20T11:17:18;4.03;;;3.73;;
29938;SDS011;16799;50.844;5.304;2023-05-20T11:19:45;3.50;;;2.70;;
29938;SDS011;16799;50.844;5.304;2023-05-20T11:22:11;4.90;;;4.13;;
29938;SDS011;16799;50.844;5.304;2023-05-20T11:24:37;4.40;;;3.33;;
29938;SDS011;16799;50.844;5.304;2023-05-20T11:27:02;3.90;;;3.40;;
29938;SDS011;16799;50.844;5.304;2023-05-20T11:29:29;4.87;;;3.63;;
29938;SDS011;16799;50.844;5.304;2023-05-20T11:31:56;8.60;;;3.33;;
29938;SDS011;16799;50.844;5.304;2023-05-20T11:34:23;6.70;;;3.27;;
29938;SDS011;16799;50.844;5.304;2023-05-20T11:36:55;6.00;;;3.00;;
29938;SDS011;16799;50.844;5.304;2023-05-20T11:39:21;3.23;;;2.90;;
29938;SDS011;16799;50.844;5.304;2023-05-20T11:41:47;6.27;;;3.57;;
29938;SDS011;16799;50.844;5.304;2023-05-20T11:44:12;4.17;;;3.87;;
29938;SDS011;16799;50.844;5.304;2023-05-20T11:46:42;3.23;;;2.93;;
29938;SDS011;16799;50.844;5.304;2023-05-20T11:49:10;6.90;;;3.70;;
29938;SDS011;16799;50.844;5.304;2023-05-20T11:51:37;7.23;;;4.00;;
29938;SDS011;16799;50.844;5.304;2023-05-20T11:54:04;3.73;;;3.43;;
29938;SDS011;16799;50.844;5.304;2023-05-20T11:56:38;3.53;;;3.30;;
29938;SDS011;16799;50.844;5.304;2023-05-20T11:59:07;6.03;;;3.33;;
29938;SDS011;16799;50.844;5.304;2023-05-20T12:01:35;3.70;;;3.47;;
29938;SDS011;16799;50.844;5.304;2023-05-20T12:04:02;3.20;;;3.00;;
29938;SDS011;16799;50.844;5.304;2023-05-20T12:06:29;6.57;;;3.80;;
29938;SDS011;16799;50.844;5.304;2023-05-20T12:08:55;4.13;;;3.73;;
29938;SDS011;16799;50.844;5.304;2023-05-20T12:11:21;4.70;;;4.30;;
29938;SDS011;16799;50.844;5.304;2023-05-20T12:13:47;3.83;;;3.53;;
29938;SDS011;16799;50.844;5.304;2023-05-20T12:16:12;4.10;;;3.43;;
29938;SDS011;16799;50.844;5.304;2023-05-20T12:18:38;3.90;;;3.60;;
29938;SDS011;16799;50.844;5.304;2023-05-20T12:21:03;5.57;;;3.30;;
29938;SDS011;16799;50.844;5.304;2023-05-20T12:23:29;3.10;;;2.80;;
29938;SDS011;16799;50.844;5.304;2023-05-20T12:25:58;4.73;;;3.60;;
29938;SDS011;16799;50.844;5.304;2023-05-20T12:28:24;3.67;;;3.37;;
29938;SDS011;16799;50.844;5.304;2023-05-20T12:30:49;4.70;;;4.40;;
29938;SDS011;16799;50.844;5.304;2023-05-20T12:33:15;5.73;;;3.50;;
29938;SDS011;16799;50.844;5.304;2023-05-20T12:35:41;4.90;;;4.50;;
29938;SDS011;16799;50.844;5.304;2023-05-20T12:38:08;5.07;;;4.57;;
29938;SDS011;16799;50.844;5.304;2023-05-20T12:40:34;3.87;;;3.50;;
29938;SDS011;16799;50.844;5.304;2023-05-20T12:43:01;10.83;;;4.63;;
29938;SDS011;16799;50.844;5.304;2023-05-20T12:45:27;4.07;;;3.77;;
29938;SDS011;16799;50.844;5.304;2023-05-20T12:47:54;8.33;;;4.23;;
29938;SDS011;16799;50.844;5.304;2023-05-20T12:50:20;4.00;;;3.70;;
29938;SDS011;16799;50.844;5.304;2023-05-20T12:52:47;3.47;;;3.17;;
29938;SDS011;16799;50.844;5.304;2023-05-20T12:55:13;7.03;;;3.90;;
29938;SDS011;16799;50.844;5.304;2023-05-20T12:57:39;3.77;;;3.57;;
29938;SDS011;16799;50.844;5.304;2023-05-20T13:00:06;4.30;;;3.80;;
29938;SDS011;16799;50.844;5.304;2023-05-20T13:02:33;7.33;;;3.47;;
29938;SDS011;16799;50.844;5.304;2023-05-20T13:04:58;4.17;;;3.87;;
29938;SDS011;16799;50.844;5.304;2023-05-20T13:07:24;8.60;;;3.43;;
29938;SDS011;16799;50.844;5.304;2023-05-20T13:09:51;5.80;;;4.43;;
29938;SDS011;16799;50.844;5.304;2023-05-20T13:12:17;3.93;;;3.73;;
29938;SDS011;16799;50.844;5.304;2023-05-20T13:14:42;3.70;;;3.40;;
29938;SDS011;16799;50.844;5.304;2023-05-20T13:17:08;11.30;;;4.77;;
29938;SDS011;16799;50.844;5.304;2023-05-20T13:19:35;5.00;;;4.60;;
29938;SDS011;16799;50.844;5.304;2023-05-20T13:22:02;4.50;;;4.20;;
29938;SDS011;16799;50.844;5.304;2023-05-20T13:24:28;4.37;;;4.17;;
29938;SDS011;16799;50.844;5.304;2023-05-20T13:26:53;4.30;;;3.90;;
29938;SDS011;16799;50.844;5.304;2023-05-20T13:29:19;4.77;;;4.37;;
29938;SDS011;16799;50.844;5.304;2023-05-20T13:31:45;5.73;;;5.33;;
29938;SDS011;16799;50.844;5.304;2023-05-20T13:34:11;4.93;;;4.33;;
29938;SDS011;16799;50.844;5.304;2023-05-20T13:36:37;9.47;;;4.90;;
29938;SDS011;16799;50.844;5.304;2023-05-20T13:39:03;5.07;;;4.57;;
29938;SDS011;16799;50.844;5.304;2023-05-20T13:41:29;4.87;;;4.47;;
29938;SDS011;16799;50.844;5.304;2023-05-20T13:43:54;6.90;;;5.10;;
29938;SDS011;16799;50.844;5.304;2023-05-20T13:46:20;8.70;;;5.03;;
29938;SDS011;16799;50.844;5.304;2023-05-20T13:48:46;8.17;;;5.07;;
29938;SDS011;16799;50.844;5.304;2023-05-20T13:51:12;6.40;;;5.50;;
29938;SDS011;16799;50.844;5.304;2023-05-20T13:53:38;7.33;;;4.80;;
29938;SDS011;16799;50.844;5.304;2023-05-20T13:56:04;5.13;;;4.80;;
29938;SDS011;16799;50.844;5.304;2023-05-20T13:58:29;6.60;;;5.10;;
29938;SDS011;16799;50.844;5.304;2023-05-20T14:00:55;6.20;;;5.70;;
29938;SDS011;16799;50.844;5.304;2023-05-20T14:03:21;6.50;;;5.90;;
29938;SDS011;16799;50.844;5.304;2023-05-20T14:05:47;7.53;;;5.00;;
29938;SDS011;16799;50.844;5.304;2023-05-20T14:08:12;5.97;;;5.37;;
29938;SDS011;16799;50.844;5.304;2023-05-20T14:10:38;5.20;;;4.80;;
29938;SDS011;16799;50.844;5.304;2023-05-20T14:13:04;7.40;;;6.70;;
29938;SDS011;16799;50.844;5.304;2023-05-20T14:15:29;6.83;;;5.97;;
29938;SDS011;16799;50.844;5.304;2023-05-20T14:17:58;7.03;;;6.20;;
29938;SDS011;16799;50.844;5.304;2023-05-20T14:20:24;7.00;;;5.33;;
29938;SDS011;16799;50.844;5.304;2023-05-20T14:22:52;8.40;;;6.37;;
29938;SDS011;16799;50.844;5.304;2023-05-20T14:25:18;6.77;;;6.17;;
29938;SDS011;16799;50.844;5.304;2023-05-20T14:27:44;8.30;;;5.80;;
29938;SDS011;16799;50.844;5.304;2023-05-20T14:30:09;7.03;;;6.33;;
29938;SDS011;16799;50.844;5.304;2023-05-20T14:32:35;7.20;;;6.53;;
29938;SDS011;16799;50.844;5.304;2023-05-20T14:35:01;5.70;;;5.30;;
29938;SDS011;16799;50.844;5.304;2023-05-20T14:37:27;6.47;;;5.60;;
29938;SDS011;16799;50.844;5.304;2023-05-20T14:39:53;6.57;;;5.90;;
29938;SDS011;16799;50.844;5.304;2023-05-20T14:42:19;7.00;;;6.27;;
29938;SDS011;16799;50.844;5.304;2023-05-20T14:44:45;6.70;;;5.90;;
29938;SDS011;16799;50.844;5.304;2023-05-20T14:47:10;6.77;;;6.17;;
29938;SDS011;16799;50.844;5.304;2023-05-20T14:49:40;5.97;;;5.47;;
29938;SDS011;16799;50.844;5.304;2023-05-20T14:52:08;7.57;;;4.53;;
29938;SDS011;16799;50.844;5.304;2023-05-20T14:54:34;7.83;;;6.67;;